sensor_id;sensor_type;location;lat;lon;timestamp;pressure;altitude;pressure_sealevel;temperature;humidity
53916;BME280;39827;49.652;18.770;2023-07-30T00:00:35;73038.22;;;-149.71;97.38
53916;BME280;39827;49.652;18.770;2023-07-30T00:03:01;73044.25;;;-149.71;97.48
53916;BME280;39827;49.652;18.770;2023-07-30T00:05:26;73040.25;;;-149.71;97.25
53916;BME280;39827;49.652;18.770;2023-07-30T00:07:52;73048.28;;;-149.71;97.54
53916;BME280;39827;49.652;18.770;2023-07-30T00:10:19;73032.22;;;-149.71;97.29
53916;BME280;39827;49.652;18.770;2023-07-30T00:12:44;73042.25;;;-149.71;97.36
53916;BME280;39827;49.652;18.770;2023-07-30T00:15:10;73032.22;;;-149.71;97.47
53916;BME280;39827;49.652;18.770;2023-07-30T00:17:35;73030.19;;;-149.71;97.47
53916;BME280;39827;49.652;18.770;2023-07-30T00:20:01;73018.16;;;-149.71;97.42
53916;BME280;39827;49.652;18.770;2023-07-30T00:22:26;73020.16;;;-149.71;97.67
53916;BME280;39827;49.652;18.770;2023-07-30T00:24:51;73034.22;;;-149.71;98.27
53916;BME280;39827;49.652;18.770;2023-07-30T00:27:17;73014.13;;;-149.71;98.26
53916;BME280;39827;49.652;18.770;2023-07-30T00:29:42;72982.00;;;-149.71;97.14
53916;BME280;39827;49.652;18.770;2023-07-30T00:32:08;72990.03;;;-149.71;96.99
53916;BME280;39827;49.652;18.770;2023-07-30T00:34:33;72994.03;;;-149.71;97.26
53916;BME280;39827;49.652;18.770;2023-07-30T00:36:58;72996.06;;;-149.71;97.37
53916;BME280;39827;49.652;18.770;2023-07-30T00:39:24;72998.06;;;-149.71;97.34
53916;BME280;39827;49.652;18.770;2023-07-30T00:41:49;72992.03;;;-149.71;97.04
53916;BME280;39827;49.652;18.770;2023-07-30T00:44:15;72998.06;;;-149.71;97.16
53916;BME280;39827;49.652;18.770;2023-07-30T00:46:41;73002.06;;;-149.71;97.11
53916;BME280;39827;49.652;18.770;2023-07-30T00:49:06;72988.03;;;-149.71;97.12
53916;BME280;39827;49.652;18.770;2023-07-30T00:51:33;72998.06;;;-149.71;97.21
53916;BME280;39827;49.652;18.770;2023-07-30T00:53:59;73006.09;;;-149.71;97.01
53916;BME280;39827;49.652;18.770;2023-07-30T00:56:26;73028.19;;;-149.71;97.34
53916;BME280;39827;49.652;18.770;2023-07-30T00:58:52;73032.22;;;-149.71;97.36
53916;BME280;39827;49.652;18.770;2023-07-30T01:01:18;73046.25;;;-149.71;98.15
53916;BME280;39827;49.652;18.770;2023-07-30T01:03:43;73048.28;;;-149.71;97.85
53916;BME280;39827;49.652;18.770;2023-07-30T01:06:10;73046.25;;;-149.71;98.50
53916;BME280;39827;49.652;18.770;2023-07-30T01:08:35;73038.22;;;-149.71;98.30
53916;BME280;39827;49.652;18.770;2023-07-30T01:11:02;73038.22;;;-149.71;97.95
53916;BME280;39827;49.652;18.770;2023-07-30T01:13:29;73044.25;;;-149.71;97.78
53916;BME280;39827;49.652;18.770;2023-07-30T01:15:55;73046.25;;;-149.71;98.27
53916;BME280;39827;49.652;18.770;2023-07-30T01:18:21;73070.38;;;-149.71;98.75
53916;BME280;39827;49.652;18.770;2023-07-30T01:20:46;73082.41;;;-149.71;99.14
53916;BME280;39827;49.652;18.770;2023-07-30T01:23:12;73080.41;;;-149.71;99.36
53916;BME280;39827;49.652;18.770;2023-07-30T01:25:37;73080.41;;;-149.71;99.35
53916;BME280;39827;49.652;18.770;2023-07-30T01:28:06;73090.44;;;-149.71;99.29
53916;BME280;39827;49.652;18.770;2023-07-30T01:30:38;73094.47;;;-149.71;99.13
53916;BME280;39827;49.652;18.770;2023-07-30T01:33:05;73096.47;;;-149.71;99.47
53916;BME280;39827;49.652;18.770;2023-07-30T01:35:32;73098.50;;;-149.71;99.08
53916;BME280;39827;49.652;18.770;2023-07-30T01:37:57;73098.50;;;-149.71;99.26
53916;BME280;39827;49.652;18.770;2023-07-30T01:40:23;73088.44;;;-149.71;99.45
53916;BME280;39827;49.652;18.770;2023-07-30T01:42:49;73098.50;;;-149.71;99.51
53916;BME280;39827;49.652;18.770;2023-07-30T01:45:15;73094.47;;;-149.71;99.32
53916;BME280;39827;49.652;18.770;2023-07-30T01:47:40;73098.50;;;-149.71;99.50
53916;BME280;39827;49.652;18.770;2023-07-30T01:50:06;73076.38;;;-149.71;99.62
53916;BME280;39827;49.652;18.770;2023-07-30T01:52:31;73076.38;;;-149.71;98.95
53916;BME280;39827;49.652;18.770;2023-07-30T01:54:57;73090.44;;;-149.71;98.89
53916;BME280;39827;49.652;18.770;2023-07-30T01:57:24;73100.50;;;-149.71;99.14
53916;BME280;39827;49.652;18.770;2023-07-30T01:59:49;73106.53;;;-149.71;99.15
53916;BME280;39827;49.652;18.770;2023-07-30T02:02:14;73114.56;;;-149.71;98.65
53916;BME280;39827;49.652;18.770;2023-07-30T02:04:40;73122.59;;;-149.71;99.07
53916;BME280;39827;49.652;18.770;2023-07-30T02:07:05;73122.59;;;-149.71;99.20
53916;BME280;39827;49.652;18.770;2023-07-30T02:09:31;73122.59;;;-149.71;99.75
53916;BME280;39827;49.652;18.770;2023-07-30T02:11:56;73112.53;;;-149.71;99.64
53916;BME280;39827;49.652;18.770;2023-07-30T02:14:21;73102.50;;;-149.71;98.73
53916;BME280;39827;49.652;18.770;2023-07-30T02:16:47;73114.56;;;-149.71;98.94
53916;BME280;39827;49.652;18.770;2023-07-30T02:19:12;73122.59;;;-149.71;98.73
53916;BME280;39827;49.652;18.770;2023-07-30T02:21:37;73142.69;;;-149.71;99.09
53916;BME280;39827;49.652;18.770;2023-07-30T02:24:08;73150.72;;;-149.71;99.32
53916;BME280;39827;49.652;18.770;2023-07-30T02:26:35;73164.78;;;-149.71;99.36
53916;BME280;39827;49.652;18.770;2023-07-30T02:29:01;73168.78;;;-149.71;99.58
53916;BME280;39827;49.652;18.770;2023-07-30T02:31:26;73192.88;;;-149.71;99.45
53916;BME280;39827;49.652;18.770;2023-07-30T02:33:51;73196.91;;;-149.71;99.92
53916;BME280;39827;49.652;18.770;2023-07-30T02:36:17;73188.88;;;-149.71;100.00
53916;BME280;39827;49.652;18.770;2023-07-30T02:38:42;73182.84;;;-149.71;100.00
53916;BME280;39827;49.652;18.770;2023-07-30T02:41:08;73182.84;;;-149.71;100.00
53916;BME280;39827;49.652;18.770;2023-07-30T02:43:33;73192.88;;;-149.71;100.00
53916;BME280;39827;49.652;18.770;2023-07-30T02:45:58;73192.88;;;-149.71;99.79
53916;BME280;39827;49.652;18.770;2023-07-30T02:48:24;73210.97;;;-149.71;100.00
53916;BME280;39827;49.652;18.770;2023-07-30T02:50:49;73206.94;;;-149.71;100.00
53916;BME280;39827;49.652;18.770;2023-07-30T02:53:15;73196.91;;;-149.71;100.00
53916;BME280;39827;49.652;18.770;2023-07-30T02:55:40;73204.94;;;-149.71;100.00
53916;BME280;39827;49.652;18.770;2023-07-30T02:58:05;73184.84;;;-149.71;99.86
53916;BME280;39827;49.652;18.770;2023-07-30T03:00:31;73200.94;;;-149.71;99.75
53916;BME280;39827;49.652;18.770;2023-07-30T03:02:56;73206.94;;;-149.71;100.00
53916;BME280;39827;49.652;18.770;2023-07-30T03:05:22;73204.94;;;-149.71;100.00
53916;BME280;39827;49.652;18.770;2023-07-30T03:07:47;73206.94;;;-149.71;99.99
53916;BME280;39827;49.652;18.770;2023-07-30T03:10:12;73194.91;;;-149.71;99.96
53916;BME280;39827;49.652;18.770;2023-07-30T03:12:38;73194.91;;;-149.71;99.85
53916;BME280;39827;49.652;18.770;2023-07-30T03:15:03;73192.88;;;-149.71;100.00
53916;BME280;39827;49.652;18.770;2023-07-30T03:17:29;73174.81;;;-149.71;99.79
53916;BME280;39827;49.652;18.770;2023-07-30T03:19:54;73194.91;;;-149.71;99.49
53916;BME280;39827;49.652;18.770;2023-07-30T03:22:20;73198.91;;;-149.71;99.69
53916;BME280;39827;49.652;18.770;2023-07-30T03:24:49;73186.88;;;-149.71;99.51
53916;BME280;39827;49.652;18.770;2023-07-30T03:27:14;73178.84;;;-149.71;99.14
53916;BME280;39827;49.652;18.770;2023-07-30T03:29:39;73186.88;;;-149.71;99.17
53916;BME280;39827;49.652;18.770;2023-07-30T03:32:05;73190.88;;;-149.71;99.40
53916;BME280;39827;49.652;18.770;2023-07-30T03:34:31;73190.88;;;-149.71;99.41
53916;BME280;39827;49.652;18.770;2023-07-30T03:36:56;73180.84;;;-149.71;98.96
53916;BME280;39827;49.652;18.770;2023-07-30T03:39:23;73204.94;;;-149.71;99.40
53916;BME280;39827;49.652;18.770;2023-07-30T03:41:48;73192.88;;;-149.71;99.62
53916;BME280;39827;49.652;18.770;2023-07-30T03:44:13;73170.78;;;-149.71;99.71
53916;BME280;39827;49.652;18.770;2023-07-30T03:46:39;73160.75;;;-149.71;98.64
53916;BME280;39827;49.652;18.770;2023-07-30T03:49:04;73164.78;;;-149.71;98.20
53916;BME280;39827;49.652;18.770;2023-07-30T03:51:31;73168.78;;;-149.71;98.13
53916;BME280;39827;49.652;18.770;2023-07-30T03:53:56;73172.81;;;-149.71;98.59
53916;BME280;39827;49.652;18.770;2023-07-30T03:56:21;73170.78;;;-149.71;98.49
53916;BME280;39827;49.652;18.770;2023-07-30T03:58:47;73162.75;;;-149.71;98.45
53916;BME280;39827;49.652;18.770;2023-07-30T04:01:12;73154.72;;;-149.71;98.21
53916;BME280;39827;49.652;18.770;2023-07-30T04:03:37;73158.75;;;-149.71;98.10
53916;BME280;39827;49.652;18.770;2023-07-30T04:06:03;73172.81;;;-149.71;98.35
53916;BME280;39827;49.652;18.770;2023-07-30T04:08:28;73158.75;;;-149.71;98.16
53916;BME280;39827;49.652;18.770;2023-07-30T04:10:54;73148.69;;;-149.71;97.87
53916;BME280;39827;49.652;18.770;2023-07-30T04:13:19;73146.69;;;-149.71;97.91
53916;BME280;39827;49.652;18.770;2023-07-30T04:15:47;73130.63;;;-149.71;97.45
53916;BME280;39827;49.652;18.770;2023-07-30T04:18:13;73146.69;;;-149.71;97.77
53916;BME280;39827;49.652;18.770;2023-07-30T04:20:38;73130.63;;;-149.71;97.71
53916;BME280;39827;49.652;18.770;2023-07-30T04:23:03;73126.59;;;-149.71;97.67
53916;BME280;39827;49.652;18.770;2023-07-30T04:25:29;73112.53;;;-149.71;96.93
53916;BME280;39827;49.652;18.770;2023-07-30T04:27:54;73108.53;;;-149.71;96.84
53916;BME280;39827;49.652;18.770;2023-07-30T04:30:20;73110.53;;;-149.71;96.56
53916;BME280;39827;49.652;18.770;2023-07-30T04:32:45;73102.50;;;-149.71;96.69
53916;BME280;39827;49.652;18.770;2023-07-30T04:35:10;73084.44;;;-149.71;96.70
53916;BME280;39827;49.652;18.770;2023-07-30T04:37:36;73084.44;;;-149.71;96.65
53916;BME280;39827;49.652;18.770;2023-07-30T04:40:02;73084.44;;;-149.71;96.24
53916;BME280;39827;49.652;18.770;2023-07-30T04:42:27;73088.44;;;-149.71;96.15
53916;BME280;39827;49.652;18.770;2023-07-30T04:44:53;73090.44;;;-149.71;95.95
53916;BME280;39827;49.652;18.770;2023-07-30T04:47:18;73098.50;;;-149.71;95.76
53916;BME280;39827;49.652;18.770;2023-07-30T04:49:43;73090.44;;;-149.71;95.71
53916;BME280;39827;49.652;18.770;2023-07-30T04:52:09;73096.47;;;-149.71;96.02
53916;BME280;39827;49.652;18.770;2023-07-30T04:54:35;73082.41;;;-149.71;96.01
53916;BME280;39827;49.652;18.770;2023-07-30T04:57:02;73042.25;;;-149.71;95.27
53916;BME280;39827;49.652;18.770;2023-07-30T04:59:27;73028.19;;;-149.71;94.88
53916;BME280;39827;49.652;18.770;2023-07-30T05:01:52;72992.03;;;-149.71;94.18
53916;BME280;39827;49.652;18.770;2023-07-30T05:04:18;72984.00;;;-149.71;93.76
53916;BME280;39827;49.652;18.770;2023-07-30T05:06:43;72984.00;;;-149.71;93.70
53916;BME280;39827;49.652;18.770;2023-07-30T05:09:09;72957.88;;;-149.71;93.09
53916;BME280;39827;49.652;18.770;2023-07-30T05:11:35;72941.81;;;-149.71;93.48
53916;BME280;39827;49.652;18.770;2023-07-30T05:14:00;72923.75;;;-149.71;93.47
53916;BME280;39827;49.652;18.770;2023-07-30T05:16:26;72897.63;;;-149.71;93.08
53916;BME280;39827;49.652;18.770;2023-07-30T05:18:51;72901.66;;;-149.71;92.12
53916;BME280;39827;49.652;18.770;2023-07-30T05:21:16;72901.66;;;-149.71;91.13
53916;BME280;39827;49.652;18.770;2023-07-30T05:23:42;72885.59;;;-149.71;90.30
53916;BME280;39827;49.652;18.770;2023-07-30T05:26:07;72873.53;;;-149.71;90.55
53916;BME280;39827;49.652;18.770;2023-07-30T05:28:33;72865.50;;;-149.71;90.76
53916;BME280;39827;49.652;18.770;2023-07-30T05:30:58;72853.44;;;-149.71;90.31
53916;BME280;39827;49.652;18.770;2023-07-30T05:33:24;72841.41;;;-149.71;88.97
53916;BME280;39827;49.652;18.770;2023-07-30T05:35:49;72805.25;;;-149.71;88.22
53916;BME280;39827;49.652;18.770;2023-07-30T05:38:14;72801.22;;;-149.71;86.97
53916;BME280;39827;49.652;18.770;2023-07-30T05:40:41;72761.06;;;-149.71;85.57
53916;BME280;39827;49.652;18.770;2023-07-30T05:43:07;72718.88;;;-149.71;84.07
53916;BME280;39827;49.652;18.770;2023-07-30T05:45:34;72704.84;;;-149.71;84.07
53916;BME280;39827;49.652;18.770;2023-07-30T05:47:59;72680.72;;;-149.71;83.87
53916;BME280;39827;49.652;18.770;2023-07-30T05:50:25;72638.56;;;-149.71;82.11
53916;BME280;39827;49.652;18.770;2023-07-30T05:52:50;72626.50;;;-149.71;82.04
53916;BME280;39827;49.652;18.770;2023-07-30T05:55:15;72594.38;;;-149.71;79.51
53916;BME280;39827;49.652;18.770;2023-07-30T05:57:41;72562.25;;;-149.71;78.46
53916;BME280;39827;49.652;18.770;2023-07-30T06:00:07;72536.13;;;-149.71;77.07
53916;BME280;39827;49.652;18.770;2023-07-30T06:02:33;72536.13;;;-149.71;75.73
53916;BME280;39827;49.652;18.770;2023-07-30T06:04:58;72532.13;;;-149.71;75.46
53916;BME280;39827;49.652;18.770;2023-07-30T06:07:24;72518.06;;;-149.71;74.99
53916;BME280;39827;49.652;18.770;2023-07-30T06:09:49;72518.06;;;-149.71;74.57
53916;BME280;39827;49.652;18.770;2023-07-30T06:12:15;72502.00;;;-149.71;74.63
53916;BME280;39827;49.652;18.770;2023-07-30T06:14:40;72479.91;;;-149.71;73.55
53916;BME280;39827;49.652;18.770;2023-07-30T06:17:05;72459.81;;;-149.71;71.79
53916;BME280;39827;49.652;18.770;2023-07-30T06:19:31;72443.75;;;-149.71;69.65
53916;BME280;39827;49.652;18.770;2023-07-30T06:21:56;72413.63;;;-149.71;68.36
53916;BME280;39827;49.652;18.770;2023-07-30T06:24:22;72387.53;;;-149.71;69.45
53916;BME280;39827;49.652;18.770;2023-07-30T06:26:47;72377.47;;;-149.71;67.79
53916;BME280;39827;49.652;18.770;2023-07-30T06:29:12;72325.28;;;-149.71;67.09
53916;BME280;39827;49.652;18.770;2023-07-30T06:31:38;72323.25;;;-149.71;63.61
53916;BME280;39827;49.652;18.770;2023-07-30T06:34:03;72299.16;;;-149.71;61.76
53916;BME280;39827;49.652;18.770;2023-07-30T06:36:29;72277.06;;;-149.71;64.46
53916;BME280;39827;49.652;18.770;2023-07-30T06:38:55;72277.06;;;-149.71;65.00
53916;BME280;39827;49.652;18.770;2023-07-30T06:41:21;72279.09;;;-149.71;60.70
53916;BME280;39827;49.652;18.770;2023-07-30T06:43:46;72273.06;;;-149.71;61.05
53916;BME280;39827;49.652;18.770;2023-07-30T06:46:12;72261.00;;;-149.71;60.90
53916;BME280;39827;49.652;18.770;2023-07-30T06:48:37;72252.97;;;-149.71;59.97
53916;BME280;39827;49.652;18.770;2023-07-30T06:51:06;72240.94;;;-149.71;59.57
53916;BME280;39827;49.652;18.770;2023-07-30T06:53:31;72285.09;;;-149.71;62.36
53916;BME280;39827;49.652;18.770;2023-07-30T06:55:56;72275.06;;;-149.71;60.42
53916;BME280;39827;49.652;18.770;2023-07-30T06:58:22;72248.97;;;-149.71;59.36
53916;BME280;39827;49.652;18.770;2023-07-30T07:00:47;72246.94;;;-149.71;55.91
53916;BME280;39827;49.652;18.770;2023-07-30T07:03:13;72226.88;;;-149.71;57.40
53916;BME280;39827;49.652;18.770;2023-07-30T07:05:38;72222.84;;;-149.71;60.03
53916;BME280;39827;49.652;18.770;2023-07-30T07:08:05;72202.78;;;-149.71;58.75
53916;BME280;39827;49.652;18.770;2023-07-30T07:10:30;72170.66;;;-149.71;56.33
53916;BME280;39827;49.652;18.770;2023-07-30T07:12:56;72154.56;;;-149.71;55.87
53916;BME280;39827;49.652;18.770;2023-07-30T07:15:21;72156.59;;;-149.71;54.89
53916;BME280;39827;49.652;18.770;2023-07-30T07:17:47;72152.56;;;-149.71;57.37
53916;BME280;39827;49.652;18.770;2023-07-30T07:20:12;72174.66;;;-149.71;58.39
53916;BME280;39827;49.652;18.770;2023-07-30T07:22:38;72146.53;;;-149.71;57.34
53916;BME280;39827;49.652;18.770;2023-07-30T07:25:03;72124.47;;;-149.71;52.53
53916;BME280;39827;49.652;18.770;2023-07-30T07:27:29;72124.47;;;-149.71;54.74
53916;BME280;39827;49.652;18.770;2023-07-30T07:29:54;72094.34;;;-149.71;53.27
53916;BME280;39827;49.652;18.770;2023-07-30T07:32:20;72078.28;;;-149.71;51.67
53916;BME280;39827;49.652;18.770;2023-07-30T07:34:46;72098.34;;;-149.71;53.08
53916;BME280;39827;49.652;18.770;2023-07-30T07:37:13;72074.25;;;-149.71;49.70
53916;BME280;39827;49.652;18.770;2023-07-30T07:39:41;72054.19;;;-149.71;51.19
53916;BME280;39827;49.652;18.770;2023-07-30T07:42:06;72066.22;;;-149.71;51.20
53916;BME280;39827;49.652;18.770;2023-07-30T07:44:32;72056.19;;;-149.71;51.60
53916;BME280;39827;49.652;18.770;2023-07-30T07:46:57;72048.16;;;-149.71;50.43
53916;BME280;39827;49.652;18.770;2023-07-30T07:49:23;72060.19;;;-149.71;51.50
53916;BME280;39827;49.652;18.770;2023-07-30T07:51:48;72036.09;;;-149.71;53.52
53916;BME280;39827;49.652;18.770;2023-07-30T07:54:14;71997.94;;;-149.71;50.90
53916;BME280;39827;49.652;18.770;2023-07-30T07:56:39;72026.06;;;-149.71;50.88
53916;BME280;39827;49.652;18.770;2023-07-30T07:59:04;72003.97;;;-149.71;53.55
53916;BME280;39827;49.652;18.770;2023-07-30T08:01:30;71957.78;;;-149.71;50.60
53916;BME280;39827;49.652;18.770;2023-07-30T08:03:55;71939.72;;;-149.71;48.76
53916;BME280;39827;49.652;18.770;2023-07-30T08:06:20;71971.84;;;-149.71;49.51
53916;BME280;39827;49.652;18.770;2023-07-30T08:08:46;71987.91;;;-149.71;50.70
53916;BME280;39827;49.652;18.770;2023-07-30T08:11:11;71997.94;;;-149.71;52.21
53916;BME280;39827;49.652;18.770;2023-07-30T08:13:37;72022.03;;;-149.71;50.80
53916;BME280;39827;49.652;18.770;2023-07-30T08:16:02;72005.97;;;-149.71;48.05
53916;BME280;39827;49.652;18.770;2023-07-30T08:18:28;72040.13;;;-149.71;49.62
53916;BME280;39827;49.652;18.770;2023-07-30T08:20:53;72022.03;;;-149.71;51.89
53916;BME280;39827;49.652;18.770;2023-07-30T08:23:19;71997.94;;;-149.71;53.14
53916;BME280;39827;49.652;18.770;2023-07-30T08:25:45;71963.81;;;-149.71;49.03
53916;BME280;39827;49.652;18.770;2023-07-30T08:28:10;71951.78;;;-149.71;49.10
53916;BME280;39827;49.652;18.770;2023-07-30T08:30:36;71935.69;;;-149.71;50.99
53916;BME280;39827;49.652;18.770;2023-07-30T08:33:01;71909.59;;;-149.71;50.55
53916;BME280;39827;49.652;18.770;2023-07-30T08:35:27;71923.66;;;-149.71;50.55
53916;BME280;39827;49.652;18.770;2023-07-30T08:37:52;71969.84;;;-149.71;51.55
53916;BME280;39827;49.652;18.770;2023-07-30T08:40:18;71983.91;;;-149.71;51.83
53916;BME280;39827;49.652;18.770;2023-07-30T08:42:43;71991.94;;;-149.71;52.53
53916;BME280;39827;49.652;18.770;2023-07-30T08:45:09;72010.00;;;-149.71;49.93
53916;BME280;39827;49.652;18.770;2023-07-30T08:47:35;72034.09;;;-149.71;53.98
53916;BME280;39827;49.652;18.770;2023-07-30T08:50:00;72018.03;;;-149.71;52.04
53916;BME280;39827;49.652;18.770;2023-07-30T08:52:27;72034.09;;;-149.71;52.31
53916;BME280;39827;49.652;18.770;2023-07-30T08:54:54;72040.13;;;-149.71;52.27
53916;BME280;39827;49.652;18.770;2023-07-30T08:57:21;72028.06;;;-149.71;53.41
53916;BME280;39827;49.652;18.770;2023-07-30T08:59:53;72038.13;;;-149.71;53.46
53916;BME280;39827;49.652;18.770;2023-07-30T09:02:30;72038.13;;;-149.71;53.18
53916;BME280;39827;49.652;18.770;2023-07-30T09:04:58;72038.13;;;-149.71;53.49
53916;BME280;39827;49.652;18.770;2023-07-30T09:07:25;72003.97;;;-149.71;52.60
53916;BME280;39827;49.652;18.770;2023-07-30T09:09:50;72016.03;;;-149.71;54.95
53916;BME280;39827;49.652;18.770;2023-07-30T09:12:16;72012.00;;;-149.71;53.22
53916;BME280;39827;49.652;18.770;2023-07-30T09:14:42;71991.94;;;-149.71;51.29
53916;BME280;39827;49.652;18.770;2023-07-30T09:17:11;71975.88;;;-149.71;52.26
53916;BME280;39827;49.652;18.770;2023-07-30T09:19:41;71987.91;;;-149.71;53.08
53916;BME280;39827;49.652;18.770;2023-07-30T09:22:06;71997.94;;;-149.71;52.67
53916;BME280;39827;49.652;18.770;2023-07-30T09:24:32;72010.00;;;-149.71;52.78
53916;BME280;39827;49.652;18.770;2023-07-30T09:27:01;71995.94;;;-149.71;52.14
53916;BME280;39827;49.652;18.770;2023-07-30T09:29:26;72038.13;;;-149.71;52.93
53916;BME280;39827;49.652;18.770;2023-07-30T09:31:53;72020.03;;;-149.71;52.28
53916;BME280;39827;49.652;18.770;2023-07-30T09:34:24;72034.09;;;-149.71;54.08
53916;BME280;39827;49.652;18.770;2023-07-30T09:36:53;72070.25;;;-149.71;54.77
53916;BME280;39827;49.652;18.770;2023-07-30T09:39:21;72068.22;;;-149.71;52.67
53916;BME280;39827;49.652;18.770;2023-07-30T09:41:48;72080.28;;;-149.71;54.97
53916;BME280;39827;49.652;18.770;2023-07-30T09:44:17;72106.38;;;-149.71;55.89
53916;BME280;39827;49.652;18.770;2023-07-30T09:46:45;72108.41;;;-149.71;57.98
53916;BME280;39827;49.652;18.770;2023-07-30T09:49:10;72108.41;;;-149.71;57.57
53916;BME280;39827;49.652;18.770;2023-07-30T09:51:40;72120.44;;;-149.71;57.63
53916;BME280;39827;49.652;18.770;2023-07-30T09:54:10;72136.50;;;-149.71;57.25
53916;BME280;39827;49.652;18.770;2023-07-30T09:56:37;72150.56;;;-149.71;57.96
53916;BME280;39827;49.652;18.770;2023-07-30T09:59:04;72132.50;;;-149.71;58.72
53916;BME280;39827;49.652;18.770;2023-07-30T10:01:30;72136.50;;;-149.71;59.32
53916;BME280;39827;49.652;18.770;2023-07-30T10:03:57;72122.44;;;-149.71;60.34
53916;BME280;39827;49.652;18.770;2023-07-30T10:06:29;72124.47;;;-149.71;59.21
53916;BME280;39827;49.652;18.770;2023-07-30T10:08:56;72112.41;;;-149.71;58.42
53916;BME280;39827;49.652;18.770;2023-07-30T10:11:24;72102.38;;;-149.71;58.16
53916;BME280;39827;49.652;18.770;2023-07-30T10:13:50;72086.31;;;-149.71;57.41
53916;BME280;39827;49.652;18.770;2023-07-30T10:16:17;72098.34;;;-149.71;55.96
53916;BME280;39827;49.652;18.770;2023-07-30T10:18:43;72078.28;;;-149.71;57.54
53916;BME280;39827;49.652;18.770;2023-07-30T10:21:09;72042.13;;;-149.71;55.97
53916;BME280;39827;49.652;18.770;2023-07-30T10:23:35;72014.00;;;-149.71;51.81
53916;BME280;39827;49.652;18.770;2023-07-30T10:26:10;72030.06;;;-149.71;52.73
53916;BME280;39827;49.652;18.770;2023-07-30T10:28:37;72034.09;;;-149.71;55.04
53916;BME280;39827;49.652;18.770;2023-07-30T10:31:06;72018.03;;;-149.71;55.00
53916;BME280;39827;49.652;18.770;2023-07-30T10:33:51;72060.19;;;-149.71;53.10
53916;BME280;39827;49.652;18.770;2023-07-30T10:36:33;72070.25;;;-149.71;56.05
53916;BME280;39827;49.652;18.770;2023-07-30T10:39:17;72062.22;;;-149.71;54.03
53916;BME280;39827;49.652;18.770;2023-07-30T10:41:48;72082.28;;;-149.71;55.35
53916;BME280;39827;49.652;18.770;2023-07-30T10:46:48;72090.31;;;-149.71;55.02
53916;BME280;39827;49.652;18.770;2023-07-30T10:49:13;72092.31;;;-149.71;55.07
53916;BME280;39827;49.652;18.770;2023-07-30T10:51:39;72126.47;;;-149.71;54.10
53916;BME280;39827;49.652;18.770;2023-07-30T10:54:08;72130.47;;;-149.71;56.04
53916;BME280;39827;49.652;18.770;2023-07-30T10:56:35;72150.56;;;-149.71;58.85
53916;BME280;39827;49.652;18.770;2023-07-30T10:59:03;72148.56;;;-149.71;59.76
53916;BME280;39827;49.652;18.770;2023-07-30T11:01:30;72160.59;;;-149.71;59.76
53916;BME280;39827;49.652;18.770;2023-07-30T11:03:56;72166.63;;;-149.71;57.13
53916;BME280;39827;49.652;18.770;2023-07-30T11:06:23;72186.72;;;-149.71;59.47
53916;BME280;39827;49.652;18.770;2023-07-30T11:08:48;72202.78;;;-149.71;59.23
53916;BME280;39827;49.652;18.770;2023-07-30T11:11:15;72220.84;;;-149.71;61.97
53916;BME280;39827;49.652;18.770;2023-07-30T11:13:43;72214.81;;;-149.71;60.23
53916;BME280;39827;49.652;18.770;2023-07-30T11:16:09;72226.88;;;-149.71;62.91
53916;BME280;39827;49.652;18.770;2023-07-30T11:18:39;72228.88;;;-149.71;59.23
53916;BME280;39827;49.652;18.770;2023-07-30T11:21:12;72246.94;;;-149.71;60.17
53916;BME280;39827;49.652;18.770;2023-07-30T11:23:40;72236.91;;;-149.71;62.12
53916;BME280;39827;49.652;18.770;2023-07-30T11:26:14;72236.91;;;-149.71;66.66
53916;BME280;39827;49.652;18.770;2023-07-30T11:28:40;72230.88;;;-149.71;64.95
53916;BME280;39827;49.652;18.770;2023-07-30T11:31:11;72210.81;;;-149.71;64.71
53916;BME280;39827;49.652;18.770;2023-07-30T11:33:40;72236.91;;;-149.71;60.76
53916;BME280;39827;49.652;18.770;2023-07-30T11:36:08;72212.81;;;-149.71;61.60
53916;BME280;39827;49.652;18.770;2023-07-30T11:38:35;72210.81;;;-149.71;62.90
53916;BME280;39827;49.652;18.770;2023-07-30T11:41:01;72196.75;;;-149.71;63.61
53916;BME280;39827;49.652;18.770;2023-07-30T11:43:26;72208.78;;;-149.71;65.48
53916;BME280;39827;49.652;18.770;2023-07-30T11:46:15;72190.72;;;-149.71;61.88
53916;BME280;39827;49.652;18.770;2023-07-30T11:48:42;72166.63;;;-149.71;59.30
53916;BME280;39827;49.652;18.770;2023-07-30T11:51:25;72146.53;;;-149.71;57.07
53916;BME280;39827;49.652;18.770;2023-07-30T11:53:58;72166.63;;;-149.71;57.63
53916;BME280;39827;49.652;18.770;2023-07-30T11:56:28;72152.56;;;-149.71;57.60
53916;BME280;39827;49.652;18.770;2023-07-30T12:01:28;72160.59;;;-149.71;59.63
53916;BME280;39827;49.652;18.770;2023-07-30T12:03:55;72200.75;;;-149.71;57.27
53916;BME280;39827;49.652;18.770;2023-07-30T12:06:21;72184.69;;;-149.71;55.35
53916;BME280;39827;49.652;18.770;2023-07-30T12:08:48;72168.63;;;-149.71;57.68
53916;BME280;39827;49.652;18.770;2023-07-30T12:11:17;72170.66;;;-149.71;56.15
53916;BME280;39827;49.652;18.770;2023-07-30T12:13:46;72200.75;;;-149.71;56.95
53916;BME280;39827;49.652;18.770;2023-07-30T12:16:12;72186.72;;;-149.71;57.79
53916;BME280;39827;49.652;18.770;2023-07-30T12:18:38;72160.59;;;-149.71;58.27
53916;BME280;39827;49.652;18.770;2023-07-30T12:21:05;72158.59;;;-149.71;55.35
53916;BME280;39827;49.652;18.770;2023-07-30T12:23:35;72136.50;;;-149.71;52.61
53916;BME280;39827;49.652;18.770;2023-07-30T12:26:02;72122.44;;;-149.71;55.10
53916;BME280;39827;49.652;18.770;2023-07-30T12:28:30;72136.50;;;-149.71;54.71
53916;BME280;39827;49.652;18.770;2023-07-30T12:30:56;72136.50;;;-149.71;55.99